CheckWX is a tool to help pilots better visualize weather data.  It is not intended as a substitute for an official pre-flight weather briefing.

17:33:01 UTC

C83 METAR
Byron Airport
Byron, California, USA
Current

18 mins ago

KC83 241715Z AUTO 24009KT 10SM CLR 20/12 A3001 RMK AO2
Observed
May-24 @ 17:15 UTC
Wind
  • 240° at 9 KTS
Visibility
10 SM
Flight Rules
VFR
Cloud Levels
  • Clear skies
Temperature
20°C / 68°F
Dewpoint
12°C / 54°F
Humidity
60%
Altimeter
30.01" Hg
Pressure
1016.22 hPa
Previous

38 mins ago

KC83 241655Z AUTO 24010KT 10SM CLR 19/11 A3001 RMK AO2
Observed
May-24 @ 16:55 UTC
Wind
  • 240° at 10 KTS
Visibility
10 SM
Flight Rules
VFR
Cloud Levels
  • Clear skies
Temperature
19°C / 66°F
Dewpoint
11°C / 52°F
Humidity
60%
Altimeter
30.01" Hg
Pressure
1016.22 hPa
Previous

58 mins ago

KC83 241635Z AUTO 24012KT 10SM CLR 18/12 A3001 RMK AO2
Observed
May-24 @ 16:35 UTC
Wind
  • 240° at 12 KTS
Visibility
10 SM
Flight Rules
VFR
Cloud Levels
  • Clear skies
Temperature
18°C / 64°F
Dewpoint
12°C / 54°F
Humidity
68%
Altimeter
30.01" Hg
Pressure
1016.22 hPa